Flight Track Log - Related Links

Times and Time Zones

All times are in EDT time to prevent confusion due to time zone crossing. See the JBU732 flight status page for this flight to view local times or setup timezone preferences in your user account.

Time Position Orientation Groundspeed Altitude Reporting Facility
EDT Latitude Longitude Course Direction KTS MPH feet Rate Location/Type
Sat 11:25:43 AM 18.5333 -67.1333 309° West 250 288 2,200  Level San Juan Center
Sat 11:26:44 AM 18.5667 -67.2000 298° West 290 334 5,300 2,975 Climbing San Juan Center
Sat 11:27:00 AM 18.7069 -67.3850 311° West  Level FlightAware Approximate
Sat 11:27:44 AM 18.6167 -67.2833 302° West 290 334 8,200  Level San Juan Center
Sat 11:28:00 AM 18.7822 -67.4899 305° West  Level FlightAware Approximate
Sat 11:28:44 AM 18.6667 -67.3500 308° West 320 368 10,600  Level San Juan Center
Sat 11:29:00 AM 18.8582 -67.5938 309° West  Level FlightAware Approximate
Sat 11:29:44 AM 18.7333 -67.4333 310° West 370 426 11,900  Level San Juan Center
Sat 11:30:00 AM 18.9375 -67.6956 309° West  Level FlightAware Approximate
Sat 11:30:44 AM 18.8000 -67.5167 310° West 390 449 14,000  Level San Juan Center
Sat 11:31:45 AM 18.8667 -67.6167 305° West 400 460 16,100 1,835 Climbing San Juan Center
Sat 11:32:45 AM 18.9333 -67.7000 310° West 410 472 17,700 1,550 Climbing San Juan Center
Sat 11:33:45 AM 19.0000 -67.8000 305° West 410 472 19,200 1,450 Climbing San Juan Center
Sat 11:34:45 AM 19.0833 -67.9000 311° West 430 495 20,600 1,388 Climbing San Juan Center
Sat 11:35:46 AM 19.1500 -68.0000 305° West 440 506 22,000 1,240 Climbing San Juan Center
Sat 11:36:46 AM 19.2333 -68.1000 311° West 450 518 23,100 1,274 Climbing San Juan Center
Sat 11:38:45 AM 19.4008 -68.3381 307° West 512 589 25,800 1,374 Climbing Miami Center
Sat 11:39:45 AM 19.4794 -68.4453 308° West 485 558 27,200 1,200 Climbing Miami Center
Sat 11:40:45 AM 19.5600 -68.5544 308° West 480 552 28,200 950 Climbing Miami Center
Sat 11:41:45 AM 19.6683 -68.6358 325° Northwest 469 540 29,100 1,050 Climbing Miami Center
Sat 11:42:45 AM 19.7747 -68.7178 324° Northwest 469 540 30,300 1,150 Climbing Miami Center
Sat 11:43:45 AM 19.8869 -68.7969 326° Northwest 480 552 31,400 1,050 Climbing Miami Center
Sat 11:44:45 AM 19.9931 -68.8767 325° Northwest 480 552 32,400 1,100 Climbing Miami Center
Sat 11:45:45 AM 20.1089 -68.9472 330° Northwest 480 552 33,600 800 Climbing Miami Center
Sat 11:46:45 AM 20.2169 -69.0247 326° Northwest 475 547 34,000 200 Climbing Miami Center
Sat 11:47:45 AM 20.2831 -69.1403 301° West 450 518 34,000  Level Miami Center
Sat 11:48:45 AM 20.3492 -69.2556 301° West 455 524 34,000  Level Miami Center
Sat 11:49:45 AM 20.4172 -69.3733 302° West 461 531 34,000  Level Miami Center
Sat 11:50:45 AM 20.4853 -69.4892 302° West 461 531 34,000  Level Miami Center
Sat 11:51:45 AM 20.5514 -69.6092 300° West 466 536 34,000  Level Miami Center
Sat 11:52:45 AM 20.6214 -69.7272 302° West 466 536 34,000  Level Miami Center
Sat 11:53:45 AM 20.6914 -69.8475 302° West 466 536 34,000  Level Miami Center
Sat 11:54:45 AM 20.7614 -69.9658 302° West 472 543 34,000  Level Miami Center
Sat 11:55:45 AM 20.8292 -70.0842 302° West 472 543 34,000  Level Miami Center
Sat 11:56:45 AM 20.8967 -70.1986 302° West 467 537 34,000  Level Miami Center
Sat 11:57:45 AM 20.9619 -70.3150 301° West 462 532 34,000  Level Miami Center
Sat 11:58:45 AM 21.0272 -70.4297 301° West 457 526 34,000  Level Miami Center
Sat 11:59:45 AM 21.0925 -70.5442 301° West 452 520 34,000  Level Miami Center
Sat 12:00:45 PM 21.1597 -70.6589 302° West 452 520 34,000  Level Miami Center
Sat 12:01:45 PM 21.2269 -70.7758 302° West 457 526 34,000  Level Miami Center
Sat 12:02:45 PM 21.2919 -70.8908 301° West 457 526 34,000  Level Miami Center
Sat 12:03:45 PM 21.3567 -71.0061 301° West 457 526 34,000  Level Miami Center
Sat 12:04:45 PM 21.4172 -71.1147 301° West 457 526 34,000  Level Miami Center
Sat 12:05:45 PM 21.4708 -71.2083 302° West 457 526 34,000  Level Miami Center
Sat 12:06:45 PM 21.5575 -71.3606 301° West 457 526 34,000  Level Miami Center
Sat 12:07:45 PM 21.6225 -71.4806 300° West 457 526 34,000  Level Miami Center
Sat 12:08:45 PM 21.6911 -71.5983 302° West 457 526 34,000  Level Miami Center
Sat 12:09:45 PM 21.7558 -71.7186 300° West 457 526 34,000  Level Miami Center
Sat 12:10:45 PM 21.8222 -71.8392 301° West 462 532 34,000  Level Miami Center
Sat 12:11:45 PM 21.8889 -71.9594 301° West 462 532 34,000  Level Miami Center
Sat 12:12:45 PM 21.9553 -72.0778 301° West 462 532 34,000  Level Miami Center
Sat 12:13:45 PM 22.0217 -72.2008 300° West 468 539 34,000  Level Miami Center
Sat 12:14:45 PM 22.0878 -72.3217 301° West 468 539 34,000  Level Miami Center
Sat 12:15:45 PM 22.1561 -72.4425 301° West 468 539 34,000  Level Miami Center
Sat 12:16:45 PM 22.2222 -72.5636 301° West 468 539 34,000  Level Miami Center
Sat 12:17:45 PM 22.2883 -72.6847 301° West 468 539 34,000  Level Miami Center
Sat 12:18:45 PM 22.3564 -72.8061 301° West 468 539 34,000  Level Miami Center
Sat 12:19:45 PM 22.4225 -72.9367 299° West 468 539 34,000  Level Miami Center
Sat 12:20:45 PM 22.4903 -73.0603 301° West 468 539 34,000  Level Miami Center
Sat 12:21:45 PM 22.5492 -73.1664 301° West 468 539 34,000  Level Miami Center
Sat 12:22:45 PM 22.6108 -73.2908 298° West 468 539 34,000  Level Miami Center
Sat 12:23:45 PM 22.6783 -73.4103 302° West 468 539 34,000  Level Miami Center
Sat 12:24:45 PM 22.7417 -73.5325 299° West 473 544 34,000  Level Miami Center
Sat 12:25:45 PM 22.8067 -73.6503 301° West 468 539 34,000  Level Miami Center
Sat 12:26:45 PM 22.8739 -73.7703 301° West 462 532 34,000  Level Miami Center
Sat 12:27:45 PM 22.9369 -73.8928 299° West 462 532 34,000  Level Miami Center
Sat 12:28:45 PM 23.0019 -74.0131 300° West 462 532 34,000  Level Miami Center
Sat 12:29:45 PM 23.0669 -74.1358 300° West 462 532 34,000  Level Miami Center
Sat 12:30:45 PM 23.1317 -74.2564 300° West 462 532 34,000  Level Miami Center
Sat 12:31:45 PM 23.1989 -74.3883 299° West 457 526 34,000  Level Miami Center
Sat 12:32:45 PM 23.2656 -74.5114 301° West 457 526 34,000  Level Miami Center
Sat 12:33:45 PM 23.3258 -74.6303 299° West 457 526 34,000  Level Miami Center
Sat 12:34:45 PM 23.3925 -74.7536 301° West 457 526 34,000  Level Miami Center
Sat 12:35:45 PM 23.4567 -74.8750 300° West 457 526 34,000  Level Miami Center
Sat 12:36:45 PM 23.5211 -74.9961 300° West 457 526 34,000  Level Miami Center
Sat 12:37:45 PM 23.5850 -75.1178 300° West 457 526 34,000  Level Miami Center
Sat 12:38:45 PM 23.6492 -75.2417 300° West 457 526 34,000  Level Miami Center
Sat 12:39:45 PM 23.7131 -75.3611 300° West 457 526 34,000  Level Miami Center
Sat 12:40:45 PM 23.7728 -75.4761 300° West 465 535 34,000  Level Miami Center
Sat 12:41:45 PM 23.8367 -75.5958 300° West 465 535 34,000  Level Miami Center
Sat 12:42:45 PM 23.9003 -75.7225 299° West 465 535 34,000  Level Miami Center
Sat 12:43:45 PM 23.9617 -75.8469 298° West 465 535 34,000  Level Miami Center
Sat 12:44:45 PM 24.0253 -75.9692 300° West 470 541 34,000  Level Miami Center
Sat 12:45:45 PM 24.0886 -76.0964 299° West 470 541 34,000  Level Miami Center
Sat 12:46:45 PM 24.1519 -76.2189 300° West 470 541 34,000  Level Miami Center
Sat 12:47:45 PM 24.2131 -76.3439 298° West 470 541 34,000  Level Miami Center
Sat 12:48:45 PM 24.2761 -76.4667 299° West 470 541 34,000  Level Miami Center
Sat 12:49:45 PM 24.3392 -76.5919 299° West 465 535 34,000  Level Miami Center
Sat 12:50:45 PM 24.4042 -76.7242 298° West 458 527 34,000  Level Miami Center
Sat 12:51:45 PM 24.4669 -76.8475 299° West 458 527 34,000  Level Miami Center
Sat 12:52:45 PM 24.5294 -76.9708 299° West 458 527 34,000  Level Miami Center
Sat 12:53:45 PM 24.5900 -77.0964 298° West 463 533 34,000  Level Miami Center
Sat 12:54:45 PM 24.6525 -77.2200 299° West 458 527 34,000  Level Miami Center
Sat 12:55:45 PM 24.7128 -77.3439 298° West 458 527 34,000  Level Miami Center
Sat 12:56:45 PM 24.7708 -77.4675 297° West 458 527 34,000  Level Miami Center
Sat 12:57:45 PM 24.8308 -77.5917 298° West 458 527 34,000  Level Miami Center
Sat 12:58:45 PM 24.8950 -77.7181 299° West 458 527 34,000  Level Miami Center
Sat 12:59:45 PM 24.9569 -77.8375 300° West 453 521 34,000  Level Miami Center
Sat 01:00:45 PM 25.0186 -77.9619 299° West 453 521 34,000  Level Miami Center
Sat 01:01:45 PM 25.0783 -78.0842 298° West 453 521 34,000  Level Miami Center
Sat 01:02:45 PM 25.1400 -78.2086 299° West 453 521 34,000  Level Miami Center
Sat 01:03:45 PM 25.2036 -78.3333 299° West 459 528 34,000  Level Miami Center
Sat 01:04:45 PM 25.2819 -78.4239 314° West 459 528 34,000  Level Miami Center
Sat 01:05:45 PM 25.3708 -78.5286 313° West 459 528 34,000  Level Miami Center
Sat 01:06:45 PM 25.4658 -78.6264 317° Northwest 459 528 34,000  Level Miami Center
Sat 01:07:45 PM 25.5606 -78.7247 317° Northwest 464 534 34,000  Level Miami Center
Sat 01:08:45 PM 25.6533 -78.8206 317° Northwest 459 528 34,000  Level Miami Center
Sat 01:09:45 PM 25.7567 -78.9053 324° Northwest 459 528 34,000  Level Miami Center
Sat 01:10:45 PM 25.8725 -78.9950 325° Northwest 464 534 34,000  Level Miami Center
Sat 01:11:45 PM 25.9800 -79.0803 325° Northwest 464 534 34,000  Level Miami Center
Sat 01:12:45 PM 26.0831 -79.1653 323° Northwest 470 541 34,000 -150 Level Miami Center
Sat 01:13:45 PM 26.1903 -79.2486 325° Northwest 470 541 33,700 -1,000 Descending Miami Center
Sat 01:14:45 PM 26.2961 -79.2969 338° Northwest 465 535 32,000 -850 Descending Miami Center
Sat 01:15:45 PM 26.4308 -79.3531 340° North 465 535 32,000  Level Miami Center
Sat 01:16:45 PM 26.5450 -79.3972 341° North 477 549 32,000  Level Miami Center
Sat 01:17:45 PM 26.6797 -79.4514 340° North 472 543 32,000  Level Miami Center
Sat 01:18:45 PM 26.7897 -79.4981 339° North 466 536 32,000 -400 Level Miami Center
Sat 01:19:45 PM 26.8842 -79.5908 319° Northwest 445 512 31,200 -500 Descending Miami Center
Sat 01:20:45 PM 26.9719 -79.6908 315° West 455 524 31,000 -150 Descending Miami Center
Sat 01:21:45 PM 27.0786 -79.7914 320° Northwest 455 524 30,900 -500 Descending Miami Center
Sat 01:22:45 PM 27.1833 -79.8711 326° Northwest 455 524 30,000 -900 Descending Miami Center
Sat 01:23:45 PM 27.2758 -79.9483 323° Northwest 455 524 29,100 -950 Descending Miami Center
Sat 01:24:45 PM 27.3786 -80.0258 326° Northwest 450 518 28,100 -1,000 Descending Miami Center
Sat 01:25:45 PM 27.4833 -80.1014 327° Northwest 450 518 27,100 -1,150 Descending Miami Center
Sat 01:26:45 PM 27.5839 -80.1769 326° Northwest 444 511 25,800 -1,350 Descending Miami Center
Sat 01:27:45 PM 27.6758 -80.2592 322° Northwest 432 497 24,400 -950 Descending Miami Center
Sat 01:28:45 PM 27.7572 -80.3486 316° Northwest 420 483 23,900 -1,200 Descending Miami Center
Sat 01:29:45 PM 27.8322 -80.4425 312° West 407 468 22,000 -2,350 Descending Miami Center
Sat 01:30:45 PM 27.8558 -80.5792 281° West 389 448 19,200 -2,350 Descending Miami Center
Sat 01:31:45 PM 27.8800 -80.7000 283° West 394 453 17,300 -1,800 Descending Miami Center
Sat 01:32:45 PM 27.8997 -80.8156 281° West 388 447 15,600 -1,841 Descending Miami Center
Sat 01:33:13 PM 27.9000 -80.8667 270° West 358 412 14,600 -1,886 Descending Orlando TRACON
Sat 01:33:55 PM 27.9167 -80.9500 283° West 350 403 13,400 -1,882 Descending Orlando TRACON
Sat 01:34:55 PM 27.9333 -81.0500 281° West 335 386 11,400 -1,200 Descending Orlando TRACON
Sat 01:35:55 PM 27.9833 -81.1333 304° West 357 411 11,000 -200 Descending Orlando TRACON
Sat 01:36:55 PM 28.0833 -81.1667 344° North 365 420 11,000 -300 Level Orlando TRACON
Sat 01:37:55 PM 28.1833 -81.1833 352° North 338 389 10,400 -893 Descending Orlando TRACON
Sat 01:38:56 PM 28.2667 -81.1833 360° North 306 352 9,200 -694 Descending Orlando TRACON
Sat 01:39:56 PM 28.3500 -81.1833 360° North 302 348 9,000 -500 Descending Orlando TRACON
Sat 01:40:56 PM 28.4333 -81.1833 360° North 251 289 8,200 -1,200 Descending Orlando TRACON
Sat 01:41:56 PM 28.5000 -81.1833 360° North 244 281 6,600 -1,632 Descending Orlando TRACON
Sat 01:42:50 PM 28.5500 -81.2000 344° North 234 269 5,100 -1,722 Descending Orlando TRACON
Sat 01:43:44 PM 28.5500 -81.2667 270° West 226 260 3,500 -1,200 Descending Orlando TRACON
Sat 01:44:50 PM 28.5333 -81.3333 254° West 156 180 2,700 -1,134 Descending Orlando TRACON
Sat 01:45:51 PM 28.5000 -81.3333 180° South 152 175 1,100 -1,574 Descending Orlando TRACON

Login

Don't have an account? Register now (free) for customized features, flight alerts, and more!